sensor_id;sensor_type;location;lat;lon;timestamp;pressure;altitude;pressure_sealevel;temperature;humidity
55763;BME280;42162;51.958;5.426;2024-01-16T00:01:10;100899.16;;;0.59;89.25
55763;BME280;42162;51.958;5.426;2024-01-16T00:03:38;100898.38;;;0.61;89.07
55763;BME280;42162;51.958;5.426;2024-01-16T00:06:08;100900.94;;;0.63;88.93
55763;BME280;42162;51.958;5.426;2024-01-16T00:08:35;100899.22;;;0.64;88.64
55763;BME280;42162;51.958;5.426;2024-01-16T00:11:03;100909.44;;;0.62;88.70
55763;BME280;42162;51.958;5.426;2024-01-16T00:13:32;100911.94;;;0.59;88.73
55763;BME280;42162;51.958;5.426;2024-01-16T00:16:02;100907.69;;;0.59;88.83
55763;BME280;42162;51.958;5.426;2024-01-16T00:18:29;100905.16;;;0.61;88.77
55763;BME280;42162;51.958;5.426;2024-01-16T00:20:57;100910.28;;;0.61;88.79
55763;BME280;42162;51.958;5.426;2024-01-16T00:23:24;100906.88;;;0.62;88.53
55763;BME280;42162;51.958;5.426;2024-01-16T00:25:52;100906.88;;;0.62;88.83
55763;BME280;42162;51.958;5.426;2024-01-16T00:28:19;100906.88;;;0.62;88.76
55763;BME280;42162;51.958;5.426;2024-01-16T00:30:46;100913.78;;;0.66;88.81
55763;BME280;42162;51.958;5.426;2024-01-16T00:33:14;100914.63;;;0.67;88.70
55763;BME280;42162;51.958;5.426;2024-01-16T00:35:41;100918.97;;;0.71;88.78
55763;BME280;42162;51.958;5.426;2024-01-16T00:38:09;100926.72;;;0.75;88.55
55763;BME280;42162;51.958;5.426;2024-01-16T00:40:36;100923.34;;;0.78;88.51
55763;BME280;42162;51.958;5.426;2024-01-16T00:43:03;100925.00;;;0.76;88.37
55763;BME280;42162;51.958;5.426;2024-01-16T00:45:30;100931.00;;;0.76;88.42
55763;BME280;42162;51.958;5.426;2024-01-16T00:47:58;100931.84;;;0.77;88.45
55763;BME280;42162;51.958;5.426;2024-01-16T00:50:26;100931.00;;;0.76;88.49
55763;BME280;42162;51.958;5.426;2024-01-16T00:52:53;100930.88;;;0.70;88.66
55763;BME280;42162;51.958;5.426;2024-01-16T00:55:20;100934.28;;;0.69;88.45
55763;BME280;42162;51.958;5.426;2024-01-16T00:57:48;100934.28;;;0.69;88.49
55763;BME280;42162;51.958;5.426;2024-01-16T01:00:15;100934.31;;;0.72;88.78
55763;BME280;42162;51.958;5.426;2024-01-16T01:02:42;100937.84;;;0.77;88.51
55763;BME280;42162;51.958;5.426;2024-01-16T01:05:11;100942.91;;;0.76;88.20
55763;BME280;42162;51.958;5.426;2024-01-16T01:07:38;100941.16;;;0.72;88.45
55763;BME280;42162;51.958;5.426;2024-01-16T01:10:05;100941.97;;;0.71;88.60
55763;BME280;42162;51.958;5.426;2024-01-16T01:12:32;100940.19;;;0.65;88.48
55763;BME280;42162;51.958;5.426;2024-01-16T01:15:03;100929.03;;;0.61;89.04
55763;BME280;42162;51.958;5.426;2024-01-16T01:17:30;100935.03;;;0.64;89.08
55763;BME280;42162;51.958;5.426;2024-01-16T01:19:57;100926.56;;;0.68;88.90
55763;BME280;42162;51.958;5.426;2024-01-16T01:22:24;100933.50;;;0.73;89.10
55763;BME280;42162;51.958;5.426;2024-01-16T01:24:52;100929.22;;;0.72;88.97
55763;BME280;42162;51.958;5.426;2024-01-16T01:27:19;100930.94;;;0.73;88.86
55763;BME280;42162;51.958;5.426;2024-01-16T01:29:48;100927.53;;;0.73;88.70
55763;BME280;42162;51.958;5.426;2024-01-16T01:32:18;100932.59;;;0.71;88.93
55763;BME280;42162;51.958;5.426;2024-01-16T01:34:45;100940.25;;;0.68;88.80
55763;BME280;42162;51.958;5.426;2024-01-16T01:37:12;100932.56;;;0.68;88.86
55763;BME280;42162;51.958;5.426;2024-01-16T01:39:40;100941.03;;;0.66;89.00
55763;BME280;42162;51.958;5.426;2024-01-16T01:42:07;100929.03;;;0.61;89.08
55763;BME280;42162;51.958;5.426;2024-01-16T01:44:34;100932.38;;;0.59;89.05
55763;BME280;42162;51.958;5.426;2024-01-16T01:47:02;100930.66;;;0.56;89.19
55763;BME280;42162;51.958;5.426;2024-01-16T01:49:30;100926.41;;;0.57;89.25
55763;BME280;42162;51.958;5.426;2024-01-16T01:51:58;100940.88;;;0.56;89.34
55763;BME280;42162;51.958;5.426;2024-01-16T01:54:26;100940.88;;;0.56;89.27
55763;BME280;42162;51.958;5.426;2024-01-16T01:56:55;100936.56;;;0.54;89.58
55763;BME280;42162;51.958;5.426;2024-01-16T01:59:23;100936.50;;;0.51;89.60
55763;BME280;42162;51.958;5.426;2024-01-16T02:01:51;100938.16;;;0.47;89.24
55763;BME280;42162;51.958;5.426;2024-01-16T02:04:36;100931.31;;;0.48;89.52
55763;BME280;42162;51.958;5.426;2024-01-16T02:07:04;100935.56;;;0.45;89.47
55763;BME280;42162;51.958;5.426;2024-01-16T02:09:31;100935.44;;;0.39;89.43
55763;BME280;42162;51.958;5.426;2024-01-16T02:12:00;100943.91;;;0.37;89.43
55763;BME280;42162;51.958;5.426;2024-01-16T02:14:27;100955.81;;;0.36;89.78
55763;BME280;42162;51.958;5.426;2024-01-16T02:16:57;100948.97;;;0.35;89.82
55763;BME280;42162;51.958;5.426;2024-01-16T02:19:25;100954.97;;;0.36;89.74
55763;BME280;42162;51.958;5.426;2024-01-16T02:21:55;100959.22;;;0.35;90.01
55763;BME280;42162;51.958;5.426;2024-01-16T02:24:24;100966.91;;;0.37;89.83
55763;BME280;42162;51.958;5.426;2024-01-16T02:26:52;100961.81;;;0.37;89.75
55763;BME280;42162;51.958;5.426;2024-01-16T02:29:20;100965.22;;;0.37;89.71
55763;BME280;42162;51.958;5.426;2024-01-16T02:31:47;100967.00;;;0.40;90.12
55763;BME280;42162;51.958;5.426;2024-01-16T02:34:14;100972.19;;;0.46;90.14
55763;BME280;42162;51.958;5.426;2024-01-16T02:36:42;100972.31;;;0.52;90.26
55763;BME280;42162;51.958;5.426;2024-01-16T02:39:09;100966.50;;;0.59;90.01
55763;BME280;42162;51.958;5.426;2024-01-16T02:41:36;100958.91;;;0.63;90.11
55763;BME280;42162;51.958;5.426;2024-01-16T02:44:04;100948.69;;;0.66;90.01
55763;BME280;42162;51.958;5.426;2024-01-16T02:46:31;100948.78;;;0.70;90.03
55763;BME280;42162;51.958;5.426;2024-01-16T02:48:59;100947.19;;;0.75;90.02
55763;BME280;42162;51.958;5.426;2024-01-16T02:51:26;100943.84;;;0.80;90.22
55763;BME280;42162;51.958;5.426;2024-01-16T02:53:53;100942.19;;;0.83;90.05
55763;BME280;42162;51.958;5.426;2024-01-16T02:56:21;100937.09;;;0.83;89.96
55763;BME280;42162;51.958;5.426;2024-01-16T02:58:48;100941.31;;;0.81;90.03
55763;BME280;42162;51.958;5.426;2024-01-16T03:01:15;100953.25;;;0.82;89.93
55763;BME280;42162;51.958;5.426;2024-01-16T03:03:42;100951.59;;;0.84;89.91
55763;BME280;42162;51.958;5.426;2024-01-16T03:06:10;100949.13;;;0.89;89.90
55763;BME280;42162;51.958;5.426;2024-01-16T03:08:37;100950.84;;;0.90;89.90
55763;BME280;42162;51.958;5.426;2024-01-16T03:11:04;100952.59;;;0.94;89.93
55763;BME280;42162;51.958;5.426;2024-01-16T03:13:31;100954.28;;;0.92;89.64
55763;BME280;42162;51.958;5.426;2024-01-16T03:15:59;100959.28;;;0.84;89.70
55763;BME280;42162;51.958;5.426;2024-01-16T03:18:27;100951.47;;;0.76;89.66
55763;BME280;42162;51.958;5.426;2024-01-16T03:20:54;100948.91;;;0.78;89.79
55763;BME280;42162;51.958;5.426;2024-01-16T03:23:21;100954.88;;;0.77;89.84
55763;BME280;42162;51.958;5.426;2024-01-16T03:25:49;100957.41;;;0.74;89.42
55763;BME280;42162;51.958;5.426;2024-01-16T03:28:16;100965.91;;;0.74;89.52
55763;BME280;42162;51.958;5.426;2024-01-16T03:30:43;100970.94;;;0.70;89.68
55763;BME280;42162;51.958;5.426;2024-01-16T03:33:10;100974.41;;;0.72;90.07
55763;BME280;42162;51.958;5.426;2024-01-16T03:35:37;100967.66;;;0.77;89.88
55763;BME280;42162;51.958;5.426;2024-01-16T03:38:05;100966.00;;;0.79;89.54
55763;BME280;42162;51.958;5.426;2024-01-16T03:40:32;100966.91;;;0.83;89.80
55763;BME280;42162;51.958;5.426;2024-01-16T03:43:01;100962.69;;;0.86;89.68
55763;BME280;42162;51.958;5.426;2024-01-16T03:45:28;100959.34;;;0.89;89.46
55763;BME280;42162;51.958;5.426;2024-01-16T03:47:58;100958.53;;;0.91;89.86
55763;BME280;42162;51.958;5.426;2024-01-16T03:50:25;100954.31;;;0.95;89.52
55763;BME280;42162;51.958;5.426;2024-01-16T03:52:53;100948.44;;;0.99;89.30
55763;BME280;42162;51.958;5.426;2024-01-16T03:55:22;100951.84;;;1.00;89.54
55763;BME280;42162;51.958;5.426;2024-01-16T03:57:50;100954.44;;;1.01;89.56
55763;BME280;42162;51.958;5.426;2024-01-16T04:00:20;100940.00;;;1.03;89.35
55763;BME280;42162;51.958;5.426;2024-01-16T04:02:50;100953.63;;;1.04;89.16
55763;BME280;42162;51.958;5.426;2024-01-16T04:05:20;100940.00;;;1.05;89.00
55763;BME280;42162;51.958;5.426;2024-01-16T04:07:47;100941.59;;;1.00;88.83
55763;BME280;42162;51.958;5.426;2024-01-16T04:10:14;100941.59;;;0.98;89.05
55763;BME280;42162;51.958;5.426;2024-01-16T04:12:44;100942.44;;;0.99;88.98
55763;BME280;42162;51.958;5.426;2024-01-16T04:15:11;100943.31;;;0.99;89.00
55763;BME280;42162;51.958;5.426;2024-01-16T04:17:38;100942.44;;;0.97;89.03
55763;BME280;42162;51.958;5.426;2024-01-16T04:20:06;100938.06;;;0.90;88.89
55763;BME280;42162;51.958;5.426;2024-01-16T04:22:36;100937.00;;;0.79;89.09
55763;BME280;42162;51.958;5.426;2024-01-16T04:25:04;100940.25;;;0.70;89.27
55763;BME280;42162;51.958;5.426;2024-01-16T04:27:31;100937.56;;;0.64;89.56
55763;BME280;42162;51.958;5.426;2024-01-16T04:29:59;100940.13;;;0.64;89.30
55763;BME280;42162;51.958;5.426;2024-01-16T04:32:26;100940.13;;;0.64;89.54
55763;BME280;42162;51.958;5.426;2024-01-16T04:34:53;100931.63;;;0.63;89.62
55763;BME280;42162;51.958;5.426;2024-01-16T04:37:21;100933.28;;;0.61;89.64
55763;BME280;42162;51.958;5.426;2024-01-16T04:39:48;100935.84;;;0.61;89.80
55763;BME280;42162;51.958;5.426;2024-01-16T04:42:15;100929.88;;;0.62;89.84
55763;BME280;42162;51.958;5.426;2024-01-16T04:44:44;100933.31;;;0.63;89.90
55763;BME280;42162;51.958;5.426;2024-01-16T04:47:11;100928.09;;;0.58;90.01
55763;BME280;42162;51.958;5.426;2024-01-16T04:49:41;100933.09;;;0.50;89.82
55763;BME280;42162;51.958;5.426;2024-01-16T04:52:08;100929.66;;;0.48;90.18
55763;BME280;42162;51.958;5.426;2024-01-16T04:54:35;100925.38;;;0.47;90.00
55763;BME280;42162;51.958;5.426;2024-01-16T04:57:03;100922.78;;;0.45;90.17
55763;BME280;42162;51.958;5.426;2024-01-16T04:59:31;100914.22;;;0.43;90.12
55763;BME280;42162;51.958;5.426;2024-01-16T05:02:00;100914.19;;;0.42;90.45
55763;BME280;42162;51.958;5.426;2024-01-16T05:04:28;100915.13;;;0.45;90.36
55763;BME280;42162;51.958;5.426;2024-01-16T05:06:55;100910.88;;;0.46;90.15
55763;BME280;42162;51.958;5.426;2024-01-16T05:09:22;100911.69;;;0.45;90.21
55763;BME280;42162;51.958;5.426;2024-01-16T05:11:49;100906.59;;;0.46;90.10
55763;BME280;42162;51.958;5.426;2024-01-16T05:14:16;100905.75;;;0.48;90.40
55763;BME280;42162;51.958;5.426;2024-01-16T05:16:44;100908.31;;;0.46;90.28
55763;BME280;42162;51.958;5.426;2024-01-16T05:19:11;100903.19;;;0.46;90.20
55763;BME280;42162;51.958;5.426;2024-01-16T05:21:40;100898.91;;;0.43;90.22
55763;BME280;42162;51.958;5.426;2024-01-16T05:24:08;100902.34;;;0.45;90.49
55763;BME280;42162;51.958;5.426;2024-01-16T05:26:35;100897.19;;;0.44;90.36
55763;BME280;42162;51.958;5.426;2024-01-16T05:29:02;100895.53;;;0.46;90.53
55763;BME280;42162;51.958;5.426;2024-01-16T05:31:29;100898.09;;;0.48;90.57
55763;BME280;42162;51.958;5.426;2024-01-16T05:33:56;100898.09;;;0.46;90.47
55763;BME280;42162;51.958;5.426;2024-01-16T05:36:26;100891.25;;;0.46;90.64
55763;BME280;42162;51.958;5.426;2024-01-16T05:38:53;100894.63;;;0.44;90.89
55763;BME280;42162;51.958;5.426;2024-01-16T05:41:21;100885.25;;;0.43;90.62
55763;BME280;42162;51.958;5.426;2024-01-16T05:43:48;100885.22;;;0.40;90.55
55763;BME280;42162;51.958;5.426;2024-01-16T05:46:15;100881.78;;;0.41;90.89
55763;BME280;42162;51.958;5.426;2024-01-16T05:48:42;100879.22;;;0.41;90.95
55763;BME280;42162;51.958;5.426;2024-01-16T05:51:10;100881.84;;;0.44;90.96
55763;BME280;42162;51.958;5.426;2024-01-16T05:53:37;100890.44;;;0.48;90.89
55763;BME280;42162;51.958;5.426;2024-01-16T05:56:05;100875.09;;;0.46;90.67
55763;BME280;42162;51.958;5.426;2024-01-16T05:58:32;100877.63;;;0.44;90.86
55763;BME280;42162;51.958;5.426;2024-01-16T06:01:06;100881.00;;;0.43;91.10
55763;BME280;42162;51.958;5.426;2024-01-16T06:03:33;100879.34;;;0.45;90.81
55763;BME280;42162;51.958;5.426;2024-01-16T06:06:00;100877.69;;;0.49;91.01
55763;BME280;42162;51.958;5.426;2024-01-16T06:08:27;100875.13;;;0.49;91.13
55763;BME280;42162;51.958;5.426;2024-01-16T06:10:55;100870.03;;;0.49;91.17
55763;BME280;42162;51.958;5.426;2024-01-16T06:13:22;100863.22;;;0.50;91.27
55763;BME280;42162;51.958;5.426;2024-01-16T06:15:49;100869.13;;;0.47;91.14
55763;BME280;42162;51.958;5.426;2024-01-16T06:18:16;100868.38;;;0.51;91.50
55763;BME280;42162;51.958;5.426;2024-01-16T06:20:44;100865.06;;;0.57;91.34
55763;BME280;42162;51.958;5.426;2024-01-16T06:23:11;100867.69;;;0.61;91.43
55763;BME280;42162;51.958;5.426;2024-01-16T06:25:38;100873.72;;;0.67;91.35
55763;BME280;42162;51.958;5.426;2024-01-16T06:28:05;100873.75;;;0.68;91.40
55763;BME280;42162;51.958;5.426;2024-01-16T06:30:34;100879.72;;;0.69;91.08
55763;BME280;42162;51.958;5.426;2024-01-16T06:33:01;100879.72;;;0.69;91.41
55763;BME280;42162;51.958;5.426;2024-01-16T06:35:29;100881.38;;;0.67;91.55
55763;BME280;42162;51.958;5.426;2024-01-16T06:37:56;100870.25;;;0.61;91.43
55763;BME280;42162;51.958;5.426;2024-01-16T06:40:23;100874.47;;;0.59;91.45
55763;BME280;42162;51.958;5.426;2024-01-16T06:42:50;100878.75;;;0.62;91.60
55763;BME280;42162;51.958;5.426;2024-01-16T06:45:17;100877.94;;;0.65;91.86
55763;BME280;42162;51.958;5.426;2024-01-16T06:47:46;100881.44;;;0.68;91.71
55763;BME280;42162;51.958;5.426;2024-01-16T06:50:17;100876.41;;;0.76;91.68
55763;BME280;42162;51.958;5.426;2024-01-16T06:52:44;100885.94;;;0.85;91.77
55763;BME280;42162;51.958;5.426;2024-01-16T06:55:11;100883.47;;;0.89;91.76
55763;BME280;42162;51.958;5.426;2024-01-16T06:57:38;100879.25;;;0.91;91.35
55763;BME280;42162;51.958;5.426;2024-01-16T07:00:06;100883.44;;;0.88;91.59
55763;BME280;42162;51.958;5.426;2024-01-16T07:02:34;100880.91;;;0.88;91.33
55763;BME280;42162;51.958;5.426;2024-01-16T07:05:02;100879.19;;;0.88;91.59
55763;BME280;42162;51.958;5.426;2024-01-16T07:07:30;100874.91;;;0.87;91.53
55763;BME280;42162;51.958;5.426;2024-01-16T07:09:57;100879.16;;;0.85;91.18
55763;BME280;42162;51.958;5.426;2024-01-16T07:12:24;100883.34;;;0.82;91.29
55763;BME280;42162;51.958;5.426;2024-01-16T07:14:52;100875.63;;;0.79;91.39
55763;BME280;42162;51.958;5.426;2024-01-16T07:17:19;100878.19;;;0.79;91.79
55763;BME280;42162;51.958;5.426;2024-01-16T07:19:46;100879.91;;;0.80;91.53
55763;BME280;42162;51.958;5.426;2024-01-16T07:22:14;100880.84;;;0.85;91.34
55763;BME280;42162;51.958;5.426;2024-01-16T07:24:42;100877.44;;;0.84;91.56
55763;BME280;42162;51.958;5.426;2024-01-16T07:27:09;100882.53;;;0.84;91.17
55763;BME280;42162;51.958;5.426;2024-01-16T07:29:36;100879.13;;;0.84;90.87
55763;BME280;42162;51.958;5.426;2024-01-16T07:32:03;100881.66;;;0.82;90.97
55763;BME280;42162;51.958;5.426;2024-01-16T07:34:31;100887.53;;;0.78;91.09
55763;BME280;42162;51.958;5.426;2024-01-16T07:36:58;100878.97;;;0.76;90.74
55763;BME280;42162;51.958;5.426;2024-01-16T07:39:25;100883.25;;;0.74;90.77
55763;BME280;42162;51.958;5.426;2024-01-16T07:41:52;100893.34;;;0.68;90.75
55763;BME280;42162;51.958;5.426;2024-01-16T07:44:20;100894.13;;;0.64;90.76
55763;BME280;42162;51.958;5.426;2024-01-16T07:46:47;100896.66;;;0.64;90.70
55763;BME280;42162;51.958;5.426;2024-01-16T07:49:14;100896.63;;;0.60;90.58
55763;BME280;42162;51.958;5.426;2024-01-16T07:51:42;100897.44;;;0.58;90.74
55763;BME280;42162;51.958;5.426;2024-01-16T07:54:09;100896.59;;;0.59;90.47
55763;BME280;42162;51.958;5.426;2024-01-16T07:56:37;100900.03;;;0.59;90.50
55763;BME280;42162;51.958;5.426;2024-01-16T07:59:05;100899.13;;;0.57;90.23
55763;BME280;42162;51.958;5.426;2024-01-16T08:01:32;100895.66;;;0.54;90.31
55763;BME280;42162;51.958;5.426;2024-01-16T08:03:59;100888.81;;;0.51;90.20
55763;BME280;42162;51.958;5.426;2024-01-16T08:06:27;100897.31;;;0.50;89.90
55763;BME280;42162;51.958;5.426;2024-01-16T08:08:54;100899.03;;;0.51;90.16
55763;BME280;42162;51.958;5.426;2024-01-16T08:11:22;100891.41;;;0.54;90.07
55763;BME280;42162;51.958;5.426;2024-01-16T08:13:49;100903.34;;;0.55;89.65
55763;BME280;42162;51.958;5.426;2024-01-16T08:16:16;100908.50;;;0.57;89.88
55763;BME280;42162;51.958;5.426;2024-01-16T08:18:43;100904.22;;;0.56;89.49
55763;BME280;42162;51.958;5.426;2024-01-16T08:21:11;100905.97;;;0.58;89.66
55763;BME280;42162;51.958;5.426;2024-01-16T08:23:38;100906.78;;;0.56;89.52
55763;BME280;42162;51.958;5.426;2024-01-16T08:26:05;100897.34;;;0.53;89.56
55763;BME280;42162;51.958;5.426;2024-01-16T08:28:33;100898.16;;;0.51;89.50
55763;BME280;42162;51.958;5.426;2024-01-16T08:31:00;100907.50;;;0.49;89.46
55763;BME280;42162;51.958;5.426;2024-01-16T08:33:27;100911.78;;;0.50;89.20
55763;BME280;42162;51.958;5.426;2024-01-16T08:36:08;100900.63;;;0.44;89.35
55763;BME280;42162;51.958;5.426;2024-01-16T08:38:35;100899.72;;;0.42;89.24
55763;BME280;42162;51.958;5.426;2024-01-16T08:41:03;100904.78;;;0.39;89.08
55763;BME280;42162;51.958;5.426;2024-01-16T08:43:33;100906.41;;;0.36;89.08
55763;BME280;42162;51.958;5.426;2024-01-16T08:46:01;100905.53;;;0.34;89.24
55763;BME280;42162;51.958;5.426;2024-01-16T08:48:28;100910.63;;;0.34;89.30
55763;BME280;42162;51.958;5.426;2024-01-16T08:50:56;100898.75;;;0.36;89.16
55763;BME280;42162;51.958;5.426;2024-01-16T08:53:23;100900.44;;;0.35;89.02
55763;BME280;42162;51.958;5.426;2024-01-16T08:55:51;100898.81;;;0.39;89.30
55763;BME280;42162;51.958;5.426;2024-01-16T08:58:18;100891.22;;;0.43;89.02
55763;BME280;42162;51.958;5.426;2024-01-16T09:00:45;100910.00;;;0.45;89.07
55763;BME280;42162;51.958;5.426;2024-01-16T09:03:14;100912.50;;;0.42;88.61
55763;BME280;42162;51.958;5.426;2024-01-16T09:05:41;100909.06;;;0.40;88.70
55763;BME280;42162;51.958;5.426;2024-01-16T09:08:10;100904.78;;;0.39;88.58
55763;BME280;42162;51.958;5.426;2024-01-16T09:10:39;100906.47;;;0.39;88.55
55763;BME280;42162;51.958;5.426;2024-01-16T09:13:06;100903.09;;;0.40;88.49
55763;BME280;42162;51.958;5.426;2024-01-16T09:15:34;100915.97;;;0.46;88.46
55763;BME280;42162;51.958;5.426;2024-01-16T09:18:01;100910.03;;;0.47;88.30
55763;BME280;42162;51.958;5.426;2024-01-16T09:20:29;100914.25;;;0.46;88.04
55763;BME280;42162;51.958;5.426;2024-01-16T09:22:56;100916.03;;;0.49;88.21
55763;BME280;42162;51.958;5.426;2024-01-16T09:25:23;100908.50;;;0.57;88.23
55763;BME280;42162;51.958;5.426;2024-01-16T09:27:54;100908.50;;;0.57;88.07
55763;BME280;42162;51.958;5.426;2024-01-16T09:30:21;100909.38;;;0.59;88.00
55763;BME280;42162;51.958;5.426;2024-01-16T09:32:49;100899.19;;;0.60;87.89
55763;BME280;42162;51.958;5.426;2024-01-16T09:35:17;100909.44;;;0.64;87.54
55763;BME280;42162;51.958;5.426;2024-01-16T09:37:44;100910.41;;;0.67;87.93
55763;BME280;42162;51.958;5.426;2024-01-16T09:40:11;100915.59;;;0.73;87.76
55763;BME280;42162;51.958;5.426;2024-01-16T09:42:40;100908.84;;;0.77;87.80
55763;BME280;42162;51.958;5.426;2024-01-16T09:45:09;100913.94;;;0.75;87.44
55763;BME280;42162;51.958;5.426;2024-01-16T09:47:37;100907.91;;;0.72;87.68
55763;BME280;42162;51.958;5.426;2024-01-16T09:50:06;100912.28;;;0.77;87.57
55763;BME280;42162;51.958;5.426;2024-01-16T09:52:33;100899.56;;;0.84;87.38
55763;BME280;42162;51.958;5.426;2024-01-16T09:55:01;100904.88;;;0.95;87.75
55763;BME280;42162;51.958;5.426;2024-01-16T09:57:29;100895.63;;;1.04;87.38
55763;BME280;42162;51.958;5.426;2024-01-16T09:59:57;100891.53;;;1.14;86.91
55763;BME280;42162;51.958;5.426;2024-01-16T10:02:25;100895.03;;;1.19;87.25
55763;BME280;42162;51.958;5.426;2024-01-16T10:04:52;100895.97;;;1.26;87.12
55763;BME280;42162;51.958;5.426;2024-01-16T10:07:20;100897.72;;;1.30;86.94
55763;BME280;42162;51.958;5.426;2024-01-16T10:09:57;100904.56;;;1.31;86.96
55763;BME280;42162;51.958;5.426;2024-01-16T10:12:25;100898.63;;;1.32;86.52
55763;BME280;42162;51.958;5.426;2024-01-16T10:14:53;100891.84;;;1.36;86.65
55763;BME280;42162;51.958;5.426;2024-01-16T10:17:21;100885.88;;;1.35;86.38
55763;BME280;42162;51.958;5.426;2024-01-16T10:19:50;100877.28;;;1.32;86.43
55763;BME280;42162;51.958;5.426;2024-01-16T10:22:21;100871.34;;;1.34;86.60
55763;BME280;42162;51.958;5.426;2024-01-16T10:25:11;100869.69;;;1.39;86.23
55763;BME280;42162;51.958;5.426;2024-01-16T10:27:44;100874.84;;;1.41;86.27
55763;BME280;42162;51.958;5.426;2024-01-16T10:30:11;100869.69;;;1.39;86.25
55763;BME280;42162;51.958;5.426;2024-01-16T10:32:41;100870.47;;;1.34;86.04
55763;BME280;42162;51.958;5.426;2024-01-16T10:35:13;100870.41;;;1.26;85.92
55763;BME280;42162;51.958;5.426;2024-01-16T10:37:45;100865.94;;;1.16;86.08
55763;BME280;42162;51.958;5.426;2024-01-16T10:40:23;100872.72;;;1.11;85.79
55763;BME280;42162;51.958;5.426;2024-01-16T10:42:59;100870.16;;;1.09;86.09
55763;BME280;42162;51.958;5.426;2024-01-16T10:45:36;100868.47;;;1.13;86.31
55763;BME280;42162;51.958;5.426;2024-01-16T10:48:07;100868.59;;;1.20;86.38
55763;BME280;42162;51.958;5.426;2024-01-16T10:50:37;100869.50;;;1.26;86.00
55763;BME280;42162;51.958;5.426;2024-01-16T10:53:07;100872.97;;;1.28;85.98
55763;BME280;42162;51.958;5.426;2024-01-16T10:58:16;100868.69;;;1.27;85.78
55763;BME280;42162;51.958;5.426;2024-01-16T11:00:45;100868.72;;;1.30;85.92
55763;BME280;42162;51.958;5.426;2024-01-16T11:03:29;100868.72;;;1.30;85.94
55763;BME280;42162;51.958;5.426;2024-01-16T11:06:05;100867.00;;;1.29;85.97
55763;BME280;42162;51.958;5.426;2024-01-16T11:08:35;100878.06;;;1.28;85.76
55763;BME280;42162;51.958;5.426;2024-01-16T11:11:04;100866.97;;;1.27;85.65
55763;BME280;42162;51.958;5.426;2024-01-16T11:13:33;100865.22;;;1.25;85.41
55763;BME280;42162;51.958;5.426;2024-01-16T11:16:03;100855.88;;;1.27;85.74
55763;BME280;42162;51.958;5.426;2024-01-16T11:18:34;100858.44;;;1.28;85.70
55763;BME280;42162;51.958;5.426;2024-01-16T11:21:08;100833.75;;;1.30;85.33
55763;BME280;42162;51.958;5.426;2024-01-16T11:23:42;100836.34;;;1.32;85.51
55763;BME280;42162;51.958;5.426;2024-01-16T11:28:54;100832.09;;;1.34;85.12
55763;BME280;42162;51.958;5.426;2024-01-16T11:31:33;100831.25;;;1.35;85.42
55763;BME280;42162;51.958;5.426;2024-01-16T11:34:02;100831.25;;;1.35;85.39
55763;BME280;42162;51.958;5.426;2024-01-16T11:36:51;100832.97;;;1.36;85.32
55763;BME280;42162;51.958;5.426;2024-01-16T11:39:24;100831.31;;;1.39;85.25
55763;BME280;42162;51.958;5.426;2024-01-16T11:41:55;100833.84;;;1.39;85.20
55763;BME280;42162;51.958;5.426;2024-01-16T11:47:21;100817.66;;;1.37;85.17
55763;BME280;42162;51.958;5.426;2024-01-16T11:50:08;100824.44;;;1.37;84.69
55763;BME280;42162;51.958;5.426;2024-01-16T11:55:30;100826.16;;;1.36;84.46
55763;BME280;42162;51.958;5.426;2024-01-16T12:00:28;100834.69;;;1.38;84.58
55763;BME280;42162;51.958;5.426;2024-01-16T12:03:02;100834.75;;;1.42;84.70
55763;BME280;42162;51.958;5.426;2024-01-16T12:05:30;100827.13;;;1.45;84.81
55763;BME280;42162;51.958;5.426;2024-01-16T12:07:57;100830.56;;;1.48;84.35
55763;BME280;42162;51.958;5.426;2024-01-16T12:10:25;100821.16;;;1.47;84.42
55763;BME280;42162;51.958;5.426;2024-01-16T12:12:58;100822.88;;;1.47;84.35
55763;BME280;42162;51.958;5.426;2024-01-16T12:15:30;100821.16;;;1.47;84.04
55763;BME280;42162;51.958;5.426;2024-01-16T12:18:00;100819.44;;;1.45;83.88
55763;BME280;42162;51.958;5.426;2024-01-16T12:20:29;100820.28;;;1.44;83.80
55763;BME280;42162;51.958;5.426;2024-01-16T12:25:29;100805.84;;;1.49;84.37
55763;BME280;42162;51.958;5.426;2024-01-16T12:28:20;100805.84;;;1.50;84.05
55763;BME280;42162;51.958;5.426;2024-01-16T12:30:51;100805.84;;;1.50;83.78
55763;BME280;42162;51.958;5.426;2024-01-16T12:33:22;100797.34;;;1.53;84.07
55763;BME280;42162;51.958;5.426;2024-01-16T12:35:49;100787.19;;;1.59;83.91
55763;BME280;42162;51.958;5.426;2024-01-16T12:38:17;100788.13;;;1.66;83.77
55763;BME280;42162;51.958;5.426;2024-01-16T12:40:48;100789.84;;;1.68;83.56
55763;BME280;42162;51.958;5.426;2024-01-16T12:43:17;100788.13;;;1.69;83.51
55763;BME280;42162;51.958;5.426;2024-01-16T12:45:45;100781.28;;;1.68;83.27
55763;BME280;42162;51.958;5.426;2024-01-16T12:48:13;100773.59;;;1.66;83.19
55763;BME280;42162;51.958;5.426;2024-01-16T12:50:40;100778.72;;;1.65;83.45
55763;BME280;42162;51.958;5.426;2024-01-16T12:53:09;100773.56;;;1.63;83.11
55763;BME280;42162;51.958;5.426;2024-01-16T12:55:38;100775.28;;;1.63;83.24
55763;BME280;42162;51.958;5.426;2024-01-16T12:58:18;100775.25;;;1.61;83.25
55763;BME280;42162;51.958;5.426;2024-01-16T13:00:49;100770.16;;;1.63;82.80
55763;BME280;42162;51.958;5.426;2024-01-16T13:03:19;100774.44;;;1.67;82.83
55763;BME280;42162;51.958;5.426;2024-01-16T13:05:57;100773.66;;;1.73;82.72
55763;BME280;42162;51.958;5.426;2024-01-16T13:08:26;100757.50;;;1.77;82.68
55763;BME280;42162;51.958;5.426;2024-01-16T13:11:04;100754.09;;;1.78;82.25
55763;BME280;42162;51.958;5.426;2024-01-16T13:13:31;100742.16;;;1.80;81.92
55763;BME280;42162;51.958;5.426;2024-01-16T13:16:00;100743.00;;;1.79;81.75
55763;BME280;42162;51.958;5.426;2024-01-16T13:18:29;100745.56;;;1.79;81.72
55763;BME280;42162;51.958;5.426;2024-01-16T13:20:58;100732.75;;;1.77;81.60
55763;BME280;42162;51.958;5.426;2024-01-16T13:23:27;100742.97;;;1.76;81.85